Time;durP1;ratioP1;P1;durP2;ratioP2;P2;SDS_P1;SDS_P2;PMS_P1;PMS_P2;Temp;Humidity;BMP_temperature;BMP_pressure;BME280_temperature;BME280_humidity;BME280_pressure;Samples;Min_cycle;Max_cycle;Signal;HPM_P1;HPM_P2
2023/08/13 00:04:18;;;;;;;6.70;3.30;;;;;;;17.14;67.26;99965.84;103126;1296;600349;-79
2023/08/13 00:06:45;;;;;;;3.30;3.00;;;;;;;17.11;67.26;99969.36;105489;1262;60873;-79
2023/08/13 00:09:12;;;;;;;12.40;3.70;;;;;;;17.09;67.43;99968.48;105396;1262;60242;-78
2023/08/13 00:11:40;;;;;;;7.00;3.40;;;;;;;17.15;67.45;99969.61;105536;1259;72012;-83
2023/08/13 00:14:07;;;;;;;5.00;3.00;;;;;;;17.17;67.39;99969.98;106089;1262;69053;-86
2023/08/13 00:16:35;;;;;;;5.50;3.60;;;;;;;17.12;67.50;99970.59;106230;1259;72695;-84
2023/08/13 00:19:02;;;;;;;5.50;3.00;;;;;;;17.08;67.73;99969.98;105622;1260;185727;-86
2023/08/13 00:21:30;;;;;;;7.30;3.70;;;;;;;17.05;67.77;99969.02;105779;1256;59170;-85
2023/08/13 00:23:57;;;;;;;5.20;3.60;;;;;;;17.01;67.98;99969.39;105633;1256;70735;-85
2023/08/13 00:26:25;;;;;;;4.80;3.40;;;;;;;16.97;68.16;99968.31;105769;1259;70127;-83
2023/08/13 00:28:52;;;;;;;4.50;3.40;;;;;;;16.94;68.30;99967.19;105797;1258;71089;-84
2023/08/13 00:31:20;;;;;;;6.30;3.60;;;;;;;16.89;68.50;99968.29;105586;1263;59738;-82
2023/08/13 00:33:47;;;;;;;5.40;2.90;;;;;;;16.85;68.68;99970.59;105805;1256;60038;-85
2023/08/13 00:36:15;;;;;;;5.10;2.70;;;;;;;16.91;68.68;99972.17;105991;1257;71836;-86
2023/08/13 00:38:42;;;;;;;8.90;3.30;;;;;;;16.95;68.68;99971.11;107853;1256;69927;-84
2023/08/13 00:41:10;;;;;;;4.60;3.30;;;;;;;16.92;68.86;99975.94;108459;1256;71419;-85
2023/08/13 00:43:38;;;;;;;7.10;3.30;;;;;;;16.89;69.00;99972.75;107608;1258;59344;-84
2023/08/13 00:46:05;;;;;;;3.60;3.20;;;;;;;16.86;69.02;99969.36;106598;1256;60031;-86
2023/08/13 00:48:33;;;;;;;6.80;3.30;;;;;;;16.83;69.10;99969.45;108424;1257;73037;-81
2023/08/13 00:51:00;;;;;;;4.80;3.60;;;;;;;16.81;69.28;99972.59;108731;1256;68785;-83
2023/08/13 00:53:29;;;;;;;6.40;3.60;;;;;;;16.78;69.35;99973.65;108114;1257;71262;-82
2023/08/13 00:55:56;;;;;;;6.60;3.40;;;;;;;16.77;69.43;99976.01;105908;1259;60149;-82
2023/08/13 00:58:24;;;;;;;6.60;3.30;;;;;;;16.76;69.47;99977.77;106538;1256;59549;-83
2023/08/13 01:00:52;;;;;;;6.20;3.20;;;;;;;16.83;69.53;99978.92;106981;1253;71713;-81
2023/08/13 01:03:19;;;;;;;7.10;3.50;;;;;;;16.85;69.44;99979.96;106422;1258;68865;-82
2023/08/13 01:05:55;;;;;;;5.60;3.80;;;;;;;16.81;69.58;99980.36;106552;1255;71521;-83
2023/08/13 01:08:44;;;;;;;6.80;3.30;;;;;;;16.75;69.73;99981.08;107983;1254;58784;-83
2023/08/13 01:11:35;;;;;;;4.30;3.40;;;;;;;16.70;69.90;99976.73;108671;1254;59171;-83
2023/08/13 01:14:24;;;;;;;5.30;3.50;;;;;;;16.65;70.04;99974.48;106340;1254;71780;-83
2023/08/13 01:16:52;;;;;;;5.00;3.40;;;;;;;16.60;70.25;99972.48;106140;1254;68866;-80
2023/08/13 01:19:20;;;;;;;6.90;3.90;;;;;;;16.58;70.32;99974.37;108420;1253;71468;-83
2023/08/13 01:21:47;;;;;;;7.10;3.60;;;;;;;16.64;70.26;99977.49;108995;1254;58803;-85
2023/08/13 01:24:17;;;;;;;6.70;3.40;;;;;;;16.66;70.21;99976.88;107016;1258;59677;-84
2023/08/13 01:26:51;;;;;;;5.70;3.30;;;;;;;16.63;70.38;99979.02;107237;1254;73478;-84
2023/08/13 01:29:31;;;;;;;3.60;3.10;;;;;;;16.61;70.53;99981.52;109123;1254;71594;-84
2023/08/13 01:31:58;;;;;;;7.50;3.60;;;;;;;16.57;70.46;99979.16;109130;1260;71652;-82
2023/08/13 01:34:26;;;;;;;4.30;3.50;;;;;;;16.54;70.73;99979.65;109095;1255;58804;-82
2023/08/13 01:36:53;;;;;;;5.80;3.00;;;;;;;16.52;70.91;99984.27;109206;1254;58767;-83
2023/08/13 01:39:21;;;;;;;7.90;3.10;;;;;;;16.57;70.83;99982.83;108709;1256;72242;-82
2023/08/13 01:41:55;;;;;;;5.30;3.50;;;;;;;16.62;70.70;99984.67;108624;1254;69063;-82
2023/08/13 01:44:23;;;;;;;6.90;3.60;;;;;;;16.60;70.89;99983.92;107785;1254;73053;-83
2023/08/13 01:46:50;;;;;;;7.30;3.40;;;;;;;16.57;70.79;99986.46;107285;1253;59735;-83
2023/08/13 01:49:19;;;;;;;6.00;3.60;;;;;;;16.53;70.86;99983.92;106770;1254;59551;-82
2023/08/13 01:51:47;;;;;;;6.70;3.60;;;;;;;16.47;71.12;99986.26;105884;1254;71769;-82
2023/08/13 01:54:14;;;;;;;4.50;3.10;;;;;;;16.41;71.51;99985.13;105754;1255;68545;-82
2023/08/13 01:56:42;;;;;;;3.80;2.90;;;;;;;16.38;71.55;99987.30;106335;1260;72769;-81
2023/08/13 01:59:09;;;;;;;4.70;3.30;;;;;;;16.40;71.56;99989.49;107780;1260;59717;-80
2023/08/13 02:01:37;;;;;;;5.00;3.50;;;;;;;16.37;71.68;99989.23;108612;1254;59716;-82
2023/08/13 02:04:04;;;;;;;5.10;3.20;;;;;;;16.32;71.70;99989.30;107806;1258;72414;-81
2023/08/13 02:06:35;;;;;;;3.60;3.30;;;;;;;16.27;72.00;99988.91;106130;1254;69992;-79
2023/08/13 02:09:02;;;;;;;8.30;3.60;;;;;;;16.22;72.31;99996.30;105830;1254;72840;-79
2023/08/13 02:11:30;;;;;;;5.00;3.30;;;;;;;16.18;72.23;99995.86;105793;1258;60395;-79
2023/08/13 02:13:57;;;;;;;4.40;3.00;;;;;;;16.22;72.26;99993.70;105562;1258;59764;-81
2023/08/13 02:16:25;;;;;;;6.00;3.60;;;;;;;16.25;72.23;99993.05;105604;1260;73088;-79
2023/08/13 02:18:52;;;;;;;4.80;3.40;;;;;;;16.22;72.35;99992.45;105598;1254;70305;-78
2023/08/13 02:21:19;;;;;;;4.50;3.70;;;;;;;16.18;72.53;99993.67;105873;1256;74959;-80
2023/08/13 02:23:47;;;;;;;3.90;3.30;;;;;;;16.14;72.65;99997.79;105587;1261;60140;-80
2023/08/13 02:26:14;;;;;;;5.50;3.30;;;;;;;16.07;72.89;100002.33;105792;1258;60139;-80
2023/08/13 02:28:45;;;;;;;5.80;3.40;;;;;;;16.06;72.92;100006.20;105809;1254;73226;-81
2023/08/13 02:31:13;;;;;;;4.50;3.10;;;;;;;16.12;73.00;100007.27;106359;1258;70336;-83
2023/08/13 02:33:41;;;;;;;8.70;3.30;;;;;;;16.09;72.93;100007.08;106039;1256;72647;-81
2023/08/13 02:36:08;;;;;;;3.70;3.20;;;;;;;16.05;73.37;100004.92;106089;1254;59644;-82
2023/08/13 02:38:36;;;;;;;6.80;4.00;;;;;;;16.02;73.63;100005.38;106654;1255;59605;-81
2023/08/13 02:41:03;;;;;;;6.80;3.60;;;;;;;15.97;73.73;100006.68;107883;1254;73200;-83
2023/08/13 02:43:54;;;;;;;7.50;3.50;;;;;;;15.99;73.82;100007.60;106876;1254;69960;-82
2023/08/13 02:46:22;;;;;;;7.20;3.60;;;;;;;16.06;73.69;100006.27;107820;1254;71380;-83
2023/08/13 02:48:53;;;;;;;8.00;3.80;;;;;;;16.05;73.67;100005.90;106426;1254;61615;-82
2023/08/13 02:51:25;;;;;;;5.10;3.60;;;;;;;16.03;73.64;100009.06;106313;1254;59668;-81
2023/08/13 02:53:52;;;;;;;7.80;3.70;;;;;;;16.00;73.70;100009.83;106717;1256;72189;-83
2023/08/13 02:56:20;;;;;;;5.30;3.90;;;;;;;15.98;73.82;100011.91;107317;1254;68703;-79
2023/08/13 02:58:47;;;;;;;7.70;3.70;;;;;;;15.97;74.03;100007.38;107076;1256;72792;-81
2023/08/13 03:01:15;;;;;;;7.60;3.40;;;;;;;16.05;73.79;100007.59;106299;1256;60192;-81
2023/08/13 03:03:42;;;;;;;6.40;3.60;;;;;;;16.06;73.82;100010.40;106321;1254;59734;-82
2023/08/13 03:06:20;;;;;;;7.60;3.90;;;;;;;16.03;73.88;100008.83;106141;1255;73148;-81
2023/08/13 03:08:48;;;;;;;5.10;3.70;;;;;;;16.01;74.10;100014.63;107960;1256;70031;-83
2023/08/13 03:11:15;;;;;;;4.90;3.40;;;;;;;16.00;74.11;100014.86;109036;1254;75137;-83
2023/08/13 03:13:43;;;;;;;8.10;3.50;;;;;;;16.04;74.09;100016.16;108406;1254;60457;-81
2023/08/13 03:16:11;;;;;;;4.40;3.40;;;;;;;16.15;73.84;100016.34;106287;1256;60498;-81
2023/08/13 03:18:40;;;;;;;4.90;3.40;;;;;;;16.18;73.74;100026.51;106270;1254;70806;-81
2023/08/13 03:21:09;;;;;;;6.70;3.40;;;;;;;16.16;73.60;100021.92;107358;1253;68997;-83
2023/08/13 03:23:36;;;;;;;6.90;4.10;;;;;;;16.15;73.74;100026.20;106111;1255;71731;-83
2023/08/13 03:26:04;;;;;;;6.60;3.60;;;;;;;16.14;73.73;100028.47;106045;1259;59751;-85
2023/08/13 03:28:32;;;;;;;5.30;3.70;;;;;;;16.13;73.69;100027.51;106047;1258;59992;-85
2023/08/13 03:31:05;;;;;;;;;;;;;;;16.22;73.63;100030.11;106557;1255;71988;-87
2023/08/13 03:33:44;;;;;;;8.00;4.20;;;;;;;16.27;73.43;100033.89;106226;1257;68734;-85
2023/08/13 03:36:12;;;;;;;4.90;3.90;;;;;;;16.24;73.53;100034.00;106441;1253;71453;-83
2023/08/13 03:38:39;;;;;;;6.70;5.30;;;;;;;16.20;73.63;100034.81;108027;1253;59689;-86
2023/08/13 03:41:07;;;;;;;8.50;4.40;;;;;;;16.18;73.62;100037.07;108100;1255;59246;-83
2023/08/13 03:43:34;;;;;;;4.50;4.10;;;;;;;16.17;73.54;100038.61;106280;1253;71811;-82
2023/08/13 03:46:02;;;;;;;5.10;4.10;;;;;;;16.24;73.69;100040.61;108619;1253;68988;-81
2023/08/13 03:48:29;;;;;;;6.10;4.00;;;;;;;16.29;73.38;100040.14;108484;1253;71712;-82
2023/08/13 03:50:57;;;;;;;4.30;3.50;;;;;;;16.29;73.32;100042.65;108340;1255;59324;-80
2023/08/13 03:53:24;;;;;;;5.30;3.80;;;;;;;16.28;73.38;100038.66;108994;1253;59202;-84
2023/08/13 03:55:56;;;;;;;5.00;4.00;;;;;;;16.29;73.22;100039.02;109381;1253;71764;-83
2023/08/13 03:58:24;;;;;;;7.20;4.30;;;;;;;16.31;73.38;100041.96;109292;1253;68728;-84
2023/08/13 04:00:55;;;;;;;5.80;3.50;;;;;;;16.43;73.14;100043.34;109249;1253;71964;-83
2023/08/13 04:03:23;;;;;;;7.70;3.60;;;;;;;16.50;72.86;100043.27;108738;1255;59634;-85
2023/08/13 04:05:54;;;;;;;4.50;3.90;;;;;;;16.54;72.71;100043.35;108724;1253;60140;-83
2023/08/13 04:08:21;;;;;;;5.40;4.20;;;;;;;16.59;72.66;100047.13;107668;1253;73036;-85
2023/08/13 04:10:49;;;;;;;5.70;3.90;;;;;;;16.68;72.49;100048.32;108054;1253;70347;-86
2023/08/13 04:13:17;;;;;;;4.40;3.80;;;;;;;16.81;72.24;100047.69;108512;1253;71208;-83
2023/08/13 04:15:44;;;;;;;5.00;3.40;;;;;;;16.98;71.73;100048.73;108207;1254;60884;-87
2023/08/13 04:18:14;;;;;;;6.10;3.60;;;;;;;17.19;71.06;100048.23;107541;1253;60522;-84
2023/08/13 04:20:41;;;;;;;6.20;4.60;;;;;;;17.30;70.54;100046.11;109152;1253;72676;-84
2023/08/13 04:23:09;;;;;;;7.10;4.10;;;;;;;17.36;70.27;100045.50;108857;1253;68792;-80
2023/08/13 04:25:39;;;;;;;5.00;3.40;;;;;;;17.41;70.06;100047.37;107692;1256;71412;-83
2023/08/13 04:28:07;;;;;;;5.30;4.10;;;;;;;17.51;69.98;100050.38;106787;1255;60457;-83
2023/08/13 04:30:38;;;;;;;6.20;3.80;;;;;;;17.64;69.53;100050.85;108157;1253;60463;-85
2023/08/13 04:33:06;;;;;;;4.20;3.40;;;;;;;17.71;69.21;100048.52;108162;1253;72580;-83
2023/08/13 04:35:34;;;;;;;5.40;4.20;;;;;;;17.74;68.96;100047.24;106734;1253;70089;-85
2023/08/13 04:38:02;;;;;;;7.80;3.70;;;;;;;17.76;68.78;100045.96;107929;1256;71475;-85
2023/08/13 04:40:32;;;;;;;5.40;3.50;;;;;;;17.85;68.80;100046.85;108589;1254;59290;-87
2023/08/13 04:42:59;;;;;;;4.80;4.30;;;;;;;17.94;68.62;100044.19;109306;1253;58727;-85
2023/08/13 04:45:27;;;;;;;4.00;3.30;;;;;;;18.01;68.36;100045.89;108712;1253;72628;-83
2023/08/13 04:47:55;;;;;;;4.80;4.00;;;;;;;18.07;68.07;100047.02;107521;1253;71162;-82
2023/08/13 04:50:23;;;;;;;4.70;3.90;;;;;;;18.14;67.81;100049.34;106605;1253;72696;-83
2023/08/13 04:52:50;;;;;;;5.00;4.10;;;;;;;18.20;67.57;100048.29;106664;1256;60625;-83
2023/08/13 04:55:19;;;;;;;3.90;3.50;;;;;;;18.27;67.31;100049.46;106652;1256;60461;-82
2023/08/13 04:57:47;;;;;;;4.00;3.50;;;;;;;18.36;67.11;100048.95;106552;1256;74319;-82
2023/08/13 05:00:15;;;;;;;4.20;3.30;;;;;;;18.42;66.78;100049.48;107205;1253;69071;-82
2023/08/13 05:02:46;;;;;;;4.00;3.20;;;;;;;18.48;66.70;100051.92;107884;1258;71498;-85
2023/08/13 05:05:14;;;;;;;5.10;3.60;;;;;;;18.54;66.44;100048.85;107747;1255;60113;-82
2023/08/13 05:07:42;;;;;;;6.50;3.50;;;;;;;18.58;66.33;100050.39;107753;1253;60431;-87
2023/08/13 05:10:09;;;;;;;7.70;4.40;;;;;;;18.62;66.39;100051.26;107584;1253;72282;-84
2023/08/13 05:12:37;;;;;;;4.30;3.40;;;;;;;18.67;66.41;100051.73;107189;1253;69012;-87
2023/08/13 05:15:06;;;;;;;5.80;3.10;;;;;;;18.71;66.22;100051.46;107650;1254;71198;-85
2023/08/13 05:17:38;;;;;;;4.80;4.00;;;;;;;18.76;66.25;100049.25;106788;1259;60496;-81
2023/08/13 05:20:06;;;;;;;4.40;3.90;;;;;;;18.81;66.10;100051.90;106439;1257;60483;-83
2023/08/13 05:22:34;;;;;;;4.40;3.70;;;;;;;18.88;65.87;100053.73;107376;1253;73791;-83
2023/08/13 05:25:02;;;;;;;5.30;3.90;;;;;;;18.94;65.51;100056.06;107910;1253;68990;-85
2023/08/13 05:27:30;;;;;;;8.10;4.00;;;;;;;18.99;65.36;100056.95;107440;1253;72668;-82
2023/08/13 05:29:57;;;;;;;6.80;3.70;;;;;;;19.05;65.36;100058.60;107418;1253;59562;-84
2023/08/13 05:32:25;;;;;;;5.10;3.50;;;;;;;19.12;65.25;100058.08;108792;1253;58767;-84
2023/08/13 05:34:53;;;;;;;6.70;3.70;;;;;;;19.19;65.08;100056.74;107654;1253;73003;-83
2023/08/13 05:37:21;;;;;;;5.20;3.60;;;;;;;19.25;64.97;100058.06;108790;1254;69479;-82
2023/08/13 05:39:52;;;;;;;5.90;3.70;;;;;;;19.33;64.90;100059.30;109018;1256;71152;-86
2023/08/13 05:42:20;;;;;;;4.10;3.60;;;;;;;19.42;64.69;100060.02;108290;1255;59123;-83
2023/08/13 05:44:47;;;;;;;4.80;3.80;;;;;;;19.52;64.42;100062.23;107084;1258;60480;-84
2023/08/13 05:47:16;;;;;;;3.30;2.90;;;;;;;19.59;64.08;100062.97;106069;1260;72394;-88
2023/08/13 05:49:44;;;;;;;3.40;3.00;;;;;;;19.67;63.97;100066.59;106193;1253;68733;-85
2023/08/13 05:52:11;;;;;;;4.10;3.20;;;;;;;19.74;63.93;100064.15;106086;1259;71185;-78
2023/08/13 05:54:39;;;;;;;4.90;3.70;;;;;;;19.81;63.65;100061.27;105597;1260;60394;-76
2023/08/13 05:57:07;;;;;;;4.90;3.30;;;;;;;19.89;63.38;100061.71;105801;1256;60605;-76
2023/08/13 05:59:34;;;;;;;3.80;3.40;;;;;;;19.95;63.32;100060.63;105475;1253;72637;-78
2023/08/13 06:02:01;;;;;;;7.80;3.90;;;;;;;20.01;63.18;100061.18;106367;1254;70287;-77
2023/08/13 06:04:29;;;;;;;4.10;3.10;;;;;;;20.09;62.81;100060.94;106009;1253;71429;-80
2023/08/13 06:06:56;;;;;;;4.30;3.50;;;;;;;20.17;62.54;100064.05;105758;1256;60521;-78
2023/08/13 06:09:24;;;;;;;5.30;3.40;;;;;;;20.25;62.33;100067.00;105863;1253;60546;-76
2023/08/13 06:11:51;;;;;;;6.10;3.50;;;;;;;20.33;62.31;100065.59;105688;1253;75715;-78
2023/08/13 06:14:19;;;;;;;5.70;3.60;;;;;;;20.41;62.26;100065.12;105721;1253;70154;-77
2023/08/13 06:16:46;;;;;;;6.10;3.60;;;;;;;20.49;62.06;100062.88;105746;1257;71418;-79
2023/08/13 06:19:21;;;;;;;4.90;3.20;;;;;;;20.55;62.03;100065.18;105687;1255;60499;-78
2023/08/13 06:21:48;;;;;;;6.40;3.20;;;;;;;20.62;61.87;100067.83;105852;1256;60309;-79
2023/08/13 06:24:16;;;;;;;6.30;3.90;;;;;;;20.68;61.37;100069.08;105779;1258;74021;-77
2023/08/13 06:26:43;;;;;;;6.00;3.80;;;;;;;20.73;61.13;100067.34;105895;1256;70015;-75
2023/08/13 06:29:10;;;;;;;3.30;3.00;;;;;;;20.79;60.96;100068.53;106043;1256;72702;-77
2023/08/13 06:31:38;;;;;;;5.20;3.80;;;;;;;20.86;60.94;100072.55;106694;1254;60186;-76
2023/08/13 06:34:09;;;;;;;7.00;3.60;;;;;;;20.93;60.68;100070.40;107465;1253;60041;-78
2023/08/13 06:36:37;;;;;;;4.70;3.40;;;;;;;20.99;60.49;100070.20;106471;1253;73951;-78
2023/08/13 06:39:04;;;;;;;5.80;3.40;;;;;;;21.06;60.21;100071.08;106507;1253;70099;-77
2023/08/13 06:41:32;;;;;;;6.50;3.40;;;;;;;21.13;59.90;100070.52;106199;1253;73221;-75
2023/08/13 06:44:03;;;;;;;6.00;3.70;;;;;;;21.20;59.36;100069.95;106501;1256;60336;-75
2023/08/13 06:46:30;;;;;;;6.20;3.60;;;;;;;21.27;59.08;100068.98;106375;1253;60405;-77
2023/08/13 06:48:58;;;;;;;4.20;3.00;;;;;;;21.32;58.97;100066.96;105924;1253;73869;-75
2023/08/13 06:51:25;;;;;;;6.00;3.40;;;;;;;21.37;58.97;100070.98;106123;1258;69413;-78
2023/08/13 06:53:53;;;;;;;4.30;3.40;;;;;;;21.45;59.01;100072.93;105982;1253;72749;-78
2023/08/13 06:56:20;;;;;;;4.70;3.60;;;;;;;21.52;58.89;100071.88;105810;1258;60533;-79
2023/08/13 06:58:48;;;;;;;4.10;3.70;;;;;;;21.57;58.68;100072.33;105815;1253;60573;-79
2023/08/13 07:01:15;;;;;;;4.60;3.40;;;;;;;21.62;58.39;100070.71;105816;1253;73854;-78
2023/08/13 07:03:44;;;;;;;3.60;3.30;;;;;;;21.66;58.22;100072.11;105902;1253;68131;-79
2023/08/13 07:06:12;;;;;;;4.50;3.40;;;;;;;21.69;58.08;100072.61;105976;1253;72743;-79
2023/08/13 07:08:39;;;;;;;5.00;3.10;;;;;;;21.75;57.87;100071.52;105987;1255;60384;-79
2023/08/13 07:11:06;;;;;;;5.40;3.20;;;;;;;21.81;57.85;100068.45;105843;1257;60420;-78
2023/08/13 07:13:34;;;;;;;5.30;3.30;;;;;;;21.86;57.72;100072.27;105843;1258;73837;-78
2023/08/13 07:16:01;;;;;;;4.30;3.40;;;;;;;21.91;57.38;100072.98;105759;1258;68858;-77
2023/08/13 07:18:29;;;;;;;6.60;3.30;;;;;;;21.93;56.93;100071.77;105430;1259;73110;-81
2023/08/13 07:20:56;;;;;;;4.80;3.40;;;;;;;21.93;57.40;100069.30;106710;1253;60531;-76
2023/08/13 07:23:23;;;;;;;3.80;3.00;;;;;;;21.97;57.31;100072.20;106669;1258;60277;-78
2023/08/13 07:25:51;;;;;;;7.40;3.40;;;;;;;22.06;56.99;100068.93;105797;1253;73755;-78
2023/08/13 07:28:18;;;;;;;6.20;3.30;;;;;;;22.16;56.87;100073.11;105811;1260;69450;-77
2023/08/13 07:30:47;;;;;;;3.90;3.50;;;;;;;22.27;56.41;100072.45;105784;1255;72703;-75
2023/08/13 07:33:14;;;;;;;4.30;3.00;;;;;;;22.35;56.05;100073.40;105908;1253;60547;-77
2023/08/13 07:35:42;;;;;;;3.40;3.10;;;;;;;22.44;55.86;100069.09;106736;1253;60476;-80
2023/08/13 07:38:10;;;;;;;2.90;2.70;;;;;;;22.50;55.74;100065.48;107412;1253;72576;-83
2023/08/13 07:40:37;;;;;;;3.70;3.30;;;;;;;22.58;55.33;100064.69;107011;1257;68687;-83
2023/08/13 07:43:04;;;;;;;3.70;3.10;;;;;;;22.69;54.78;100062.17;105990;1255;72437;-84
2023/08/13 07:45:32;;;;;;;4.20;3.40;;;;;;;22.75;53.53;100064.20;106080;1256;60482;-83
2023/08/13 07:48:00;;;;;;;4.00;2.70;;;;;;;22.77;54.01;100053.77;106713;1256;60189;-82
2023/08/13 07:50:29;;;;;;;4.30;3.10;;;;;;;22.83;53.78;100058.40;106063;1253;72619;-82
2023/08/13 07:53:00;;;;;;;3.80;2.90;;;;;;;22.95;53.23;100059.70;106420;1253;70317;-83
2023/08/13 07:55:53;;;;;;;4.10;3.00;;;;;;;23.07;52.38;100057.31;107666;1259;72911;-81
2023/08/13 07:58:20;;;;;;;3.50;3.20;;;;;;;23.17;51.89;100073.79;108556;1259;60358;-83
2023/08/13 08:00:48;;;;;;;4.30;3.10;;;;;;;23.23;51.43;100059.05;107925;1260;59211;-83
2023/08/13 08:03:15;;;;;;;6.40;2.60;;;;;;;23.30;50.69;100060.32;108227;1258;73099;-81
2023/08/13 08:05:47;;;;;;;4.10;2.80;;;;;;;23.41;50.22;100057.80;107353;1257;68747;-80
2023/08/13 08:08:16;;;;;;;3.00;2.40;;;;;;;23.55;49.77;100052.72;108304;1259;72468;-81
2023/08/13 08:10:43;;;;;;;4.30;2.80;;;;;;;23.65;50.16;100050.49;108281;1259;58801;-80
2023/08/13 08:13:10;;;;;;;6.90;3.20;;;;;;;23.73;49.13;100061.48;106747;1261;61411;-76
2023/08/13 08:15:38;;;;;;;3.30;2.60;;;;;;;23.75;49.46;100053.90;105312;1262;74316;-78
2023/08/13 08:18:06;;;;;;;5.30;3.30;;;;;;;23.83;49.01;100052.20;105796;1257;69904;-77
2023/08/13 08:20:33;;;;;;;5.50;3.80;;;;;;;23.97;48.11;100050.58;106181;1263;70881;-77
2023/08/13 08:23:01;;;;;;;4.10;2.70;;;;;;;24.14;47.73;100051.84;107065;1260;60503;-77
2023/08/13 08:25:28;;;;;;;4.20;3.00;;;;;;;24.25;47.66;100055.57;105553;1259;60622;-77
2023/08/13 08:27:57;;;;;;;3.40;2.90;;;;;;;24.26;47.49;100057.48;105447;1259;73795;-77
2023/08/13 08:30:24;;;;;;;4.00;2.80;;;;;;;24.25;47.61;100051.27;105399;1259;69969;-77
2023/08/13 08:32:52;;;;;;;3.80;2.60;;;;;;;24.26;47.97;100053.24;105332;1259;72724;-78
2023/08/13 08:35:19;;;;;;;2.70;2.40;;;;;;;24.34;47.36;100051.93;105532;1260;60384;-77
2023/08/13 08:37:47;;;;;;;3.20;2.50;;;;;;;24.45;46.75;100050.99;105644;1264;60447;-77
2023/08/13 08:40:14;;;;;;;2.70;2.30;;;;;;;24.47;46.63;100055.87;105627;1261;73824;-78
2023/08/13 08:42:42;;;;;;;3.90;2.70;;;;;;;24.42;46.52;100055.79;106022;1260;70126;-78
2023/08/13 08:45:10;;;;;;;2.90;2.50;;;;;;;24.35;46.94;100054.57;105450;1259;71099;-78
2023/08/13 08:47:40;;;;;;;3.30;2.80;;;;;;;24.33;46.72;100055.19;105110;1260;60976;-78
2023/08/13 08:50:10;;;;;;;4.10;3.00;;;;;;;24.28;46.66;100053.02;105313;1263;60391;-77
2023/08/13 08:52:38;;;;;;;5.70;3.40;;;;;;;24.18;46.81;100054.71;105431;1263;73829;-77
2023/08/13 08:55:06;;;;;;;4.30;2.80;;;;;;;24.08;46.90;100047.41;105388;1260;69094;-77
2023/08/13 08:57:33;;;;;;;3.00;2.40;;;;;;;24.12;47.37;100045.42;105420;1259;73155;-77
2023/08/13 09:00:01;;;;;;;3.40;2.50;;;;;;;24.33;47.39;100047.80;105318;1267;60887;-77
2023/08/13 09:02:28;;;;;;;3.30;3.00;;;;;;;24.60;47.26;100044.64;105334;1260;60458;-77
2023/08/13 09:04:57;;;;;;;3.90;2.90;;;;;;;24.90;46.41;100044.75;105519;1259;74291;-77
2023/08/13 09:07:30;;;;;;;6.60;2.70;;;;;;;25.16;45.72;100039.64;105844;1259;69996;-77
2023/08/13 09:09:57;;;;;;;3.60;3.20;;;;;;;25.39;45.14;100041.45;106605;1263;71388;-78
2023/08/13 09:12:25;;;;;;;3.00;2.70;;;;;;;25.53;44.28;100041.69;106583;1263;59254;-76
2023/08/13 09:14:54;;;;;;;3.80;3.10;;;;;;;25.63;44.99;100031.91;106147;1263;60418;-78
2023/08/13 09:17:25;;;;;;;5.60;3.00;;;;;;;25.88;44.79;100036.65;106181;1260;72614;-78
2023/08/13 09:19:53;;;;;;;5.30;2.80;;;;;;;26.17;44.49;100040.88;106268;1258;70673;-78
2023/08/13 09:22:20;;;;;;;5.30;3.50;;;;;;;26.46;43.57;100049.83;106755;1259;71757;-78
2023/08/13 09:24:48;;;;;;;3.70;2.70;;;;;;;26.68;43.10;100047.39;106302;1258;60620;-78
2023/08/13 09:27:16;;;;;;;4.70;3.30;;;;;;;26.84;41.95;100047.27;105783;1259;60620;-77
2023/08/13 09:29:43;;;;;;;4.80;3.50;;;;;;;27.02;42.20;100036.66;105254;1259;72625;-77
2023/08/13 09:32:11;;;;;;;3.40;2.90;;;;;;;27.36;41.53;100032.05;105310;1260;69600;-77
2023/08/13 09:34:38;;;;;;;3.00;2.60;;;;;;;27.80;41.64;100032.52;105382;1262;71106;-78
2023/08/13 09:37:06;;;;;;;2.90;2.50;;;;;;;28.31;40.85;100035.06;105317;1259;60945;-78
2023/08/13 09:39:33;;;;;;;2.90;2.70;;;;;;;28.81;40.06;100045.04;105620;1259;60576;-76
2023/08/13 09:42:02;;;;;;;2.60;2.40;;;;;;;29.27;39.05;100032.77;105421;1262;73862;-78
2023/08/13 09:44:30;;;;;;;2.80;2.60;;;;;;;29.70;37.64;100036.79;105478;1263;68859;-78
2023/08/13 09:47:02;;;;;;;2.80;2.60;;;;;;;29.65;37.52;100024.67;105453;1262;71707;-78
2023/08/13 09:49:32;;;;;;;5.30;2.90;;;;;;;29.52;37.99;100027.49;105453;1259;60529;-77
2023/08/13 09:52:00;;;;;;;4.80;2.70;;;;;;;29.39;38.20;100031.86;105601;1262;60559;-78
2023/08/13 09:54:47;;;;;;;3.30;2.80;;;;;;;29.29;38.24;100032.16;105364;1265;73958;-76
2023/08/13 09:57:16;;;;;;;2.90;2.60;;;;;;;29.36;38.35;100031.28;105438;1259;68797;-78
2023/08/13 09:59:44;;;;;;;3.00;2.80;;;;;;;29.62;37.79;100031.55;105723;1259;72765;-78
2023/08/13 10:02:13;;;;;;;3.10;2.50;;;;;;;29.97;37.37;100027.83;106398;1259;60568;-76
2023/08/13 10:04:41;;;;;;;3.00;2.70;;;;;;;30.32;36.91;100027.01;105709;1261;60378;-77
2023/08/13 10:07:08;;;;;;;6.20;3.00;;;;;;;30.55;35.99;100031.28;105358;1261;72616;-78
2023/08/13 10:09:37;;;;;;;4.90;2.90;;;;;;;30.69;36.05;100024.77;105708;1258;70139;-77
2023/08/13 10:12:07;;;;;;;3.00;2.60;;;;;;;30.98;36.04;100023.95;106822;1263;71491;-79
2023/08/13 10:14:35;;;;;;;3.90;3.00;;;;;;;31.33;35.48;100022.70;105803;1258;60551;-77
2023/08/13 10:17:06;;;;;;;4.50;4.10;;;;;;;31.79;35.57;100020.88;105498;1262;62378;-78
2023/08/13 10:19:37;;;;;;;6.20;3.30;;;;;;;32.54;34.70;100018.35;105631;1259;73870;-78
2023/08/13 10:22:04;;;;;;;3.20;3.00;;;;;;;33.14;33.38;100019.41;106323;1260;69237;-78
2023/08/13 10:24:31;;;;;;;6.50;3.40;;;;;;;33.25;33.13;100024.25;106337;1263;71375;-76
2023/08/13 10:26:59;;;;;;;4.10;3.10;;;;;;;33.12;33.10;100027.92;105680;1259;60496;-76
2023/08/13 10:29:37;;;;;;;4.00;2.80;;;;;;;32.92;33.18;100030.58;105617;1260;60474;-79
2023/08/13 10:32:15;;;;;;;5.60;3.30;;;;;;;32.77;32.78;100028.65;106531;1259;73375;-79
2023/08/13 10:34:53;;;;;;;2.90;2.60;;;;;;;32.59;33.17;100021.57;105964;1263;68202;-79
2023/08/13 10:37:22;;;;;;;3.80;2.60;;;;;;;32.70;33.19;100024.73;105853;1259;72446;-78
2023/08/13 10:39:52;;;;;;;5.90;3.00;;;;;;;32.81;32.72;100029.51;105551;1260;60604;-78
2023/08/13 10:42:26;;;;;;;4.40;2.70;;;;;;;32.77;32.91;100021.57;106021;1258;60375;-77
2023/08/13 10:45:01;;;;;;;4.30;2.60;;;;;;;32.79;33.00;100028.06;105767;1260;72256;-76
2023/08/13 10:47:37;;;;;;;3.60;2.70;;;;;;;32.96;33.07;100026.52;105456;1259;68318;-78
2023/08/13 10:50:15;;;;;;;3.00;2.50;;;;;;;33.25;32.61;100022.44;105479;1259;74926;-78
2023/08/13 10:52:45;;;;;;;3.70;3.40;;;;;;;33.38;32.56;100025.75;105406;1259;61113;-78
2023/08/13 10:55:12;;;;;;;3.10;2.90;;;;;;;33.28;32.72;100027.99;105397;1260;60515;-76
2023/08/13 10:57:42;;;;;;;5.10;4.60;;;;;;;32.93;33.04;100032.65;105368;1259;74643;-78
2023/08/13 11:00:13;;;;;;;3.50;2.80;;;;;;;32.61;33.34;100035.05;105429;1259;73026;-78
2023/08/13 11:02:43;;;;;;;3.40;2.80;;;;;;;32.46;33.06;100027.55;105377;1264;72338;-78
2023/08/13 11:05:11;;;;;;;3.90;3.00;;;;;;;32.32;33.47;100030.90;105446;1259;60569;-77
2023/08/13 11:07:38;;;;;;;3.80;2.70;;;;;;;32.26;33.23;100034.23;105337;1264;60378;-79
2023/08/13 11:10:06;;;;;;;3.40;2.90;;;;;;;32.25;33.12;100034.67;105437;1265;73874;-79
2023/08/13 11:12:34;;;;;;;3.90;3.50;;;;;;;32.53;33.31;100028.84;105543;1259;70029;-79
2023/08/13 11:15:01;;;;;;;3.20;2.90;;;;;;;32.98;32.84;100028.67;105535;1259;72774;-77
2023/08/13 11:17:28;;;;;;;4.30;3.30;;;;;;;33.19;32.50;100033.61;105547;1259;60483;-76
2023/08/13 11:19:57;;;;;;;3.50;3.20;;;;;;;33.17;32.79;100022.34;106516;1259;60480;-78
2023/08/13 11:22:27;;;;;;;3.90;3.20;;;;;;;33.30;32.67;100020.10;105792;1259;72647;-77
2023/08/13 11:24:54;;;;;;;3.80;3.30;;;;;;;33.53;32.43;100018.30;105536;1262;68860;-79
2023/08/13 11:27:28;;;;;;;3.80;2.90;;;;;;;33.69;31.72;100019.69;105697;1259;71385;-80
2023/08/13 11:29:55;;;;;;;3.40;2.70;;;;;;;33.83;31.47;100010.61;106122;1259;60476;-77